Time;durP1;ratioP1;P1;durP2;ratioP2;P2;SDS_P1;SDS_P2;PMS_P1;PMS_P2;Temp;Humidity;BMP_temperature;BMP_pressure;BME280_temperature;BME280_humidity;BME280_pressure;Samples;Min_cycle;Max_cycle;Signal;HPM_P1;HPM_P2
2022/07/05 00:00:17;;;;;;;2.15;0.90;;;15.20;99.90;;;;;;5043686;28;20044;-71
2022/07/05 00:02:43;;;;;;;2.15;1.15;;;15.10;99.90;;;;;;5034418;28;20397;-72
2022/07/05 00:05:08;;;;;;;2.10;1.48;;;15.20;99.90;;;;;;5031358;28;20048;-71
2022/07/05 00:07:34;;;;;;;3.53;0.93;;;15.20;99.90;;;;;;5039679;28;20374;-71
2022/07/05 00:10:00;;;;;;;3.05;1.15;;;15.20;99.90;;;;;;5033385;28;20167;-71
2022/07/05 00:12:32;;;;;;;1.88;1.02;;;15.10;99.90;;;;;;5030924;28;20413;-71
2022/07/05 00:14:58;;;;;;;3.53;1.10;;;15.10;99.90;;;;;;5039366;28;20029;-71
2022/07/05 00:17:23;;;;;;;3.15;1.10;;;15.10;99.90;;;;;;5025999;28;20115;-71
2022/07/05 00:19:49;;;;;;;3.10;1.05;;;15.10;99.90;;;;;;5033230;28;20052;-71
2022/07/05 00:22:15;;;;;;;1.38;0.80;;;15.10;99.90;;;;;;5032667;28;20061;-70
2022/07/05 00:24:41;;;;;;;2.03;1.50;;;15.00;99.90;;;;;;5039820;28;20021;-70
2022/07/05 00:27:06;;;;;;;3.40;1.40;;;15.00;99.90;;;;;;5037292;28;20029;-71
2022/07/05 00:29:32;;;;;;;3.08;1.67;;;15.00;99.90;;;;;;5030480;28;20045;-70
2022/07/05 00:31:58;;;;;;;4.18;1.40;;;14.90;99.90;;;;;;5038259;28;20469;-70
2022/07/05 00:34:23;;;;;;;2.90;1.10;;;14.80;99.90;;;;;;5030773;28;20025;-70
2022/07/05 00:36:49;;;;;;;2.33;1.38;;;14.80;99.90;;;;;;5037885;28;20389;-71
2022/07/05 00:39:15;;;;;;;1.85;1.42;;;14.70;99.90;;;;;;5032407;28;20061;-70
2022/07/05 00:41:41;;;;;;;2.97;1.30;;;14.80;99.90;;;;;;5037359;28;20435;-71
2022/07/05 00:44:09;;;;;;;1.77;1.17;;;14.90;99.90;;;;;;5028381;28;21002;-71
2022/07/05 00:46:36;;;;;;;2.33;1.42;;;15.00;99.90;;;;;;5029248;28;20091;-71
2022/07/05 00:49:03;;;;;;;2.47;1.60;;;15.00;99.90;;;;;;5038651;28;20037;-71
2022/07/05 00:51:31;;;;;;;2.78;1.50;;;15.00;99.90;;;;;;5037603;28;20040;-69
2022/07/05 00:53:57;;;;;;;1.92;1.48;;;15.00;99.90;;;;;;5033282;28;20021;-70
2022/07/05 00:56:24;;;;;;;3.40;1.30;;;15.00;99.90;;;;;;5024560;28;20025;-70
2022/07/05 00:58:50;;;;;;;4.47;1.58;;;14.90;99.90;;;;;;5035000;28;20112;-70
2022/07/05 01:01:16;;;;;;;5.15;1.98;;;14.90;99.90;;;;;;5048005;28;20500;-70
2022/07/05 01:03:42;;;;;;;3.97;1.98;;;14.90;99.90;;;;;;5044904;28;20413;-70
2022/07/05 01:06:10;;;;;;;2.90;1.83;;;14.90;99.90;;;;;;5038175;28;20033;-68
2022/07/05 01:08:38;;;;;;;4.05;2.00;;;14.90;99.90;;;;;;5035136;28;20061;-70
2022/07/05 01:11:05;;;;;;;7.75;2.38;;;14.90;99.90;;;;;;5026697;28;20110;-70
2022/07/05 01:13:30;;;;;;;3.45;1.98;;;14.80;99.90;;;;;;5047032;28;20470;-69
2022/07/05 01:15:57;;;;;;;4.75;2.47;;;14.80;99.90;;;;;;5041004;28;20036;-70
2022/07/05 01:18:24;;;;;;;4.43;2.35;;;14.80;99.90;;;;;;5036747;28;20041;-69
2022/07/05 01:20:50;;;;;;;4.63;2.13;;;14.80;99.90;;;;;;5043540;28;20037;-69
2022/07/05 01:23:17;;;;;;;4.43;2.80;;;14.80;99.90;;;;;;5038643;28;20561;-69
2022/07/05 01:25:45;;;;;;;3.67;2.55;;;14.80;99.90;;;;;;5035731;28;20033;-69
2022/07/05 01:28:11;;;;;;;4.55;2.67;;;14.80;99.90;;;;;;5030008;28;20385;-69
2022/07/05 01:30:38;;;;;;;3.35;2.53;;;14.80;99.90;;;;;;5036197;28;20028;-70
2022/07/05 01:33:06;;;;;;;5.00;2.75;;;14.80;99.90;;;;;;5041963;28;20078;-70
2022/07/05 01:35:32;;;;;;;3.72;2.60;;;14.80;99.90;;;;;;5033939;28;20033;-70
2022/07/05 01:37:58;;;;;;;5.93;2.70;;;14.80;99.90;;;;;;5043524;28;20040;-71
2022/07/05 01:40:24;;;;;;;3.53;2.65;;;14.70;99.90;;;;;;5036968;28;20037;-71
2022/07/05 01:42:50;;;;;;;4.75;3.42;;;14.60;99.90;;;;;;5034409;28;20033;-70
2022/07/05 01:48:02;;;;;;;4.60;3.03;;;14.50;99.90;;;;;;5029196;28;20055;-70
2022/07/05 01:50:31;;;;;;;6.68;3.17;;;14.50;99.90;;;;;;5038235;28;20156;-71
2022/07/05 01:52:58;;;;;;;6.43;3.55;;;14.30;99.90;;;;;;5036623;28;20037;-71
2022/07/05 01:55:24;;;;;;;5.18;3.13;;;14.30;99.90;;;;;;5037522;28;20509;-70
2022/07/05 01:57:50;;;;;;;5.90;3.03;;;14.30;99.90;;;;;;5023542;28;20057;-71
2022/07/05 02:00:16;;;;;;;4.30;3.65;;;14.10;99.90;;;;;;5033168;28;20047;-70
2022/07/05 02:02:42;;;;;;;4.60;3.25;;;14.10;99.90;;;;;;5034319;28;20389;-72
2022/07/05 02:05:08;;;;;;;4.85;3.45;;;14.00;99.90;;;;;;5028251;28;20562;-71
2022/07/05 02:07:33;;;;;;;4.53;3.33;;;13.90;99.90;;;;;;5035507;28;20109;-71
2022/07/05 02:09:59;;;;;;;5.53;3.75;;;14.00;99.90;;;;;;5042255;28;20029;-71
2022/07/05 02:12:25;;;;;;;8.40;3.05;;;13.90;99.90;;;;;;5032073;28;20120;-71
2022/07/05 02:14:50;;;;;;;6.35;3.38;;;13.90;99.90;;;;;;5031195;28;20045;-71
2022/07/05 02:17:16;;;;;;;7.72;3.45;;;13.90;99.90;;;;;;5032774;28;20473;-71
2022/07/05 02:19:41;;;;;;;4.95;3.72;;;13.90;99.90;;;;;;5037000;28;20045;-71
2022/07/05 02:22:07;;;;;;;12.95;4.88;;;13.80;99.90;;;;;;5032937;28;20029;-70
2022/07/05 02:24:33;;;;;;;5.78;4.25;;;13.80;99.90;;;;;;5041465;28;20025;-68
2022/07/05 02:26:59;;;;;;;8.68;3.97;;;13.70;99.90;;;;;;5032456;28;20482;-72
2022/07/05 02:29:25;;;;;;;6.63;4.50;;;13.70;99.90;;;;;;5026453;28;20037;-70
2022/07/05 02:31:50;;;;;;;5.85;3.67;;;13.70;99.90;;;;;;5033994;28;20060;-71
2022/07/05 02:34:16;;;;;;;7.72;3.53;;;13.70;99.90;;;;;;5034031;28;20026;-71
2022/07/05 02:36:42;;;;;;;4.57;3.45;;;13.70;99.90;;;;;;5044295;28;20025;-71
2022/07/05 02:39:07;;;;;;;5.95;3.47;;;13.60;99.90;;;;;;5042460;28;20044;-72
2022/07/05 02:41:33;;;;;;;7.00;3.55;;;13.60;99.90;;;;;;5040475;28;20082;-71
2022/07/05 02:43:59;;;;;;;7.07;3.55;;;13.60;99.90;;;;;;5031590;28;20366;-71
2022/07/05 02:46:24;;;;;;;5.97;3.67;;;13.60;99.90;;;;;;5031818;28;20040;-71
2022/07/05 02:48:51;;;;;;;8.18;3.15;;;13.50;99.90;;;;;;5042758;28;20071;-71
2022/07/05 02:51:17;;;;;;;6.38;3.80;;;13.50;99.90;;;;;;5044498;28;20549;-71
2022/07/05 02:53:42;;;;;;;4.80;3.17;;;13.50;99.90;;;;;;5038449;28;20112;-71
2022/07/05 02:56:08;;;;;;;5.60;3.45;;;13.50;99.90;;;;;;5030320;28;20034;-69
2022/07/05 02:58:33;;;;;;;6.80;3.50;;;13.40;99.90;;;;;;5046711;28;20104;-70
2022/07/05 03:00:59;;;;;;;5.10;3.03;;;13.20;99.90;;;;;;5040162;28;20037;-70
2022/07/05 03:03:25;;;;;;;4.55;2.88;;;13.30;99.90;;;;;;5031715;28;20508;-70
2022/07/05 03:05:50;;;;;;;6.55;3.72;;;13.30;99.90;;;;;;5037327;28;20087;-70
2022/07/05 03:08:16;;;;;;;6.57;3.58;;;13.30;99.90;;;;;;5036192;28;20029;-71
2022/07/05 03:10:42;;;;;;;5.32;3.45;;;13.20;99.90;;;;;;5034223;28;20040;-71
2022/07/05 03:13:08;;;;;;;7.38;3.67;;;13.20;99.90;;;;;;5025211;28;20449;-70
2022/07/05 03:15:33;;;;;;;5.85;3.67;;;13.10;99.90;;;;;;5040202;28;20543;-70
2022/07/05 03:17:59;;;;;;;6.88;3.95;;;13.10;99.90;;;;;;5039991;28;20057;-71
2022/07/05 03:20:25;;;;;;;6.63;3.97;;;13.00;99.90;;;;;;5036385;28;20053;-70
2022/07/05 03:22:50;;;;;;;4.93;3.63;;;13.00;99.90;;;;;;5041882;28;20021;-71
2022/07/05 03:25:16;;;;;;;7.78;4.28;;;13.00;99.90;;;;;;5036673;28;20056;-72
2022/07/05 03:27:42;;;;;;;6.78;3.72;;;13.00;99.90;;;;;;5026093;28;20113;-71
2022/07/05 03:30:09;;;;;;;6.18;4.40;;;13.00;99.90;;;;;;5023970;28;20491;-70
2022/07/05 03:32:34;;;;;;;7.45;4.28;;;13.00;99.90;;;;;;5031743;28;20025;-70
2022/07/05 03:35:00;;;;;;;7.15;4.57;;;12.90;99.90;;;;;;5022609;28;20030;-68
2022/07/05 03:37:26;;;;;;;7.18;4.45;;;12.90;99.90;;;;;;5032256;28;20022;-71
2022/07/05 03:39:51;;;;;;;7.90;4.68;;;12.90;99.90;;;;;;5039992;28;20029;-69
2022/07/05 03:42:17;;;;;;;6.70;4.22;;;12.90;99.90;;;;;;5034244;28;20107;-71
2022/07/05 03:44:42;;;;;;;10.20;5.15;;;12.80;99.90;;;;;;5040372;28;20025;-71
2022/07/05 03:47:08;;;;;;;7.07;4.28;;;12.80;99.90;;;;;;5029167;28;20468;-71
2022/07/05 03:49:34;;;;;;;10.45;5.05;;;12.80;99.90;;;;;;5034587;28;20040;-72
2022/07/05 03:51:59;;;;;;;6.43;4.55;;;12.70;99.90;;;;;;5034337;28;20079;-72
2022/07/05 03:54:25;;;;;;;8.52;4.43;;;12.70;99.90;;;;;;5041470;28;20040;-72
2022/07/05 03:56:50;;;;;;;9.65;4.40;;;12.70;99.90;;;;;;5037511;28;20115;-72
2022/07/05 03:59:16;;;;;;;7.63;4.60;;;12.70;99.90;;;;;;5048313;28;20112;-72
2022/07/05 04:01:42;;;;;;;9.32;5.03;;;12.70;99.90;;;;;;5036094;28;20076;-72
2022/07/05 04:04:08;;;;;;;6.28;4.28;;;12.60;99.90;;;;;;5030496;28;20061;-71
2022/07/05 04:06:33;;;;;;;6.63;4.43;;;12.60;99.90;;;;;;5034384;28;20377;-71
2022/07/05 04:08:59;;;;;;;8.15;4.90;;;12.60;99.90;;;;;;5037582;28;20028;-71
2022/07/05 04:11:25;;;;;;;7.40;4.13;;;12.60;99.90;;;;;;5034003;28;20376;-72
2022/07/05 04:13:50;;;;;;;6.90;3.70;;;12.60;99.90;;;;;;5023839;28;20385;-71
2022/07/05 04:16:16;;;;;;;7.38;4.00;;;12.70;99.90;;;;;;5043217;28;20025;-72
2022/07/05 04:18:42;;;;;;;6.13;3.80;;;12.70;99.90;;;;;;5041161;28;20111;-72
2022/07/05 04:21:07;;;;;;;7.10;4.20;;;12.70;99.90;;;;;;5032564;28;20477;-71
2022/07/05 04:23:33;;;;;;;7.40;4.03;;;12.70;99.90;;;;;;5034374;28;20424;-73
2022/07/05 04:26:00;;;;;;;6.50;4.18;;;12.70;99.90;;;;;;5034035;28;20416;-73
2022/07/05 04:28:26;;;;;;;6.30;3.80;;;12.70;99.90;;;;;;5036784;28;20024;-73
2022/07/05 04:30:52;;;;;;;7.45;4.30;;;12.70;99.90;;;;;;5030062;28;20025;-72
2022/07/05 04:33:17;;;;;;;6.85;3.78;;;12.70;99.90;;;;;;5043257;28;20033;-74
2022/07/05 04:35:43;;;;;;;6.00;3.50;;;12.70;99.90;;;;;;5036311;28;20030;-74
2022/07/05 04:38:09;;;;;;;5.63;3.75;;;12.60;99.90;;;;;;5037261;28;20074;-71
2022/07/05 04:40:35;;;;;;;8.45;3.38;;;12.70;99.90;;;;;;5037638;28;20053;-72
2022/07/05 04:43:00;;;;;;;5.97;3.60;;;12.60;99.90;;;;;;5030994;28;20082;-73
2022/07/05 04:45:26;;;;;;;10.98;3.80;;;12.60;99.90;;;;;;5032856;28;20025;-72
2022/07/05 04:47:52;;;;;;;7.75;3.83;;;12.60;99.90;;;;;;5032376;28;20581;-71
2022/07/05 04:50:17;;;;;;;5.43;3.67;;;12.60;99.90;;;;;;5028031;28;20026;-72
2022/07/05 04:52:43;;;;;;;6.03;3.70;;;12.60;99.90;;;;;;5034698;28;20026;-72
2022/07/05 04:55:09;;;;;;;5.65;3.67;;;12.60;99.90;;;;;;5047631;28;20041;-73
2022/07/05 04:57:39;;;;;;;8.90;4.25;;;12.60;99.90;;;;;;5034368;28;20029;-71
2022/07/05 05:00:06;;;;;;;6.00;3.25;;;12.60;99.90;;;;;;5035039;28;20033;-71
2022/07/05 05:02:31;;;;;;;6.03;3.20;;;12.60;99.90;;;;;;5033180;28;20116;-71
2022/07/05 05:04:57;;;;;;;5.07;3.45;;;12.70;99.90;;;;;;5038693;28;20418;-70
2022/07/05 05:07:22;;;;;;;5.95;3.88;;;12.60;99.90;;;;;;5025104;28;20037;-72
2022/07/05 05:09:48;;;;;;;6.75;4.30;;;12.70;99.90;;;;;;5033881;28;20393;-71
2022/07/05 05:12:14;;;;;;;5.72;3.97;;;12.60;99.90;;;;;;5024865;28;20036;-72
2022/07/05 05:14:39;;;;;;;6.90;3.70;;;12.70;99.90;;;;;;5035923;28;20021;-72
2022/07/05 05:17:05;;;;;;;7.20;3.88;;;12.70;99.90;;;;;;5033290;28;20053;-72
2022/07/05 05:19:31;;;;;;;5.35;3.80;;;12.70;99.90;;;;;;5028609;28;20484;-72
2022/07/05 05:21:56;;;;;;;7.60;4.05;;;12.70;99.90;;;;;;5023681;28;20033;-73
2022/07/05 05:24:22;;;;;;;5.95;3.88;;;12.70;99.90;;;;;;5029689;28;20025;-73
2022/07/05 05:26:49;;;;;;;6.72;3.92;;;12.70;99.90;;;;;;5038604;28;20486;-72
2022/07/05 05:29:14;;;;;;;11.73;3.95;;;12.80;99.90;;;;;;5030514;28;20029;-73
2022/07/05 05:31:40;;;;;;;8.43;3.97;;;12.80;99.90;;;;;;5036680;28;20036;-73
2022/07/05 05:34:06;;;;;;;5.40;3.53;;;12.80;99.90;;;;;;5029348;28;20030;-72
2022/07/05 05:36:31;;;;;;;9.80;3.85;;;12.80;99.90;;;;;;5029986;28;20026;-73
2022/07/05 05:38:57;;;;;;;6.60;3.58;;;12.90;99.90;;;;;;5028840;28;20036;-73
2022/07/05 05:41:22;;;;;;;6.28;3.38;;;12.90;99.90;;;;;;5031388;28;20385;-73
2022/07/05 05:43:48;;;;;;;7.97;3.83;;;13.00;99.90;;;;;;5030269;28;20025;-72
2022/07/05 05:46:14;;;;;;;8.45;3.22;;;13.00;99.90;;;;;;5030806;28;20038;-73
2022/07/05 05:48:39;;;;;;;5.35;3.20;;;13.10;99.90;;;;;;5027283;28;20026;-73
2022/07/05 05:51:05;;;;;;;6.47;3.45;;;13.10;99.90;;;;;;5026288;28;20512;-73
2022/07/05 05:53:31;;;;;;;4.15;3.03;;;13.10;99.90;;;;;;5029580;28;20044;-72
2022/07/05 05:55:56;;;;;;;5.68;3.13;;;13.20;99.90;;;;;;5031382;28;20022;-72
2022/07/05 05:58:26;;;;;;;6.43;3.22;;;13.20;99.90;;;;;;5033434;28;20108;-72
2022/07/05 06:00:52;;;;;;;6.13;3.80;;;13.20;99.90;;;;;;5031319;28;20117;-72
2022/07/05 06:03:20;;;;;;;7.78;3.10;;;13.30;99.90;;;;;;5033034;28;20026;-72
2022/07/05 06:05:46;;;;;;;5.70;3.50;;;13.40;99.90;;;;;;5029057;28;20128;-72
2022/07/05 06:08:12;;;;;;;7.60;2.30;;;13.50;99.90;;;;;;5028754;28;20435;-72
2022/07/05 06:10:38;;;;;;;4.60;2.45;;;13.50;99.90;;;;;;5035071;28;20037;-72
2022/07/05 06:13:07;;;;;;;9.77;3.70;;;13.50;99.90;;;;;;5035228;28;20509;-72
2022/07/05 06:15:33;;;;;;;4.40;2.65;;;13.60;99.90;;;;;;5032935;28;20104;-72
2022/07/05 06:17:59;;;;;;;3.33;2.25;;;13.60;99.90;;;;;;5034526;28;20025;-72
2022/07/05 06:20:36;;;;;;;5.20;2.70;;;13.60;99.90;;;;;;5032955;28;20128;-72
2022/07/05 06:23:03;;;;;;;4.15;2.50;;;13.70;99.90;;;;;;5024955;28;20029;-73
2022/07/05 06:25:29;;;;;;;7.65;2.78;;;13.70;99.90;;;;;;5028857;28;20026;-71
2022/07/05 06:27:56;;;;;;;5.93;2.45;;;13.80;99.90;;;;;;5030059;28;20512;-72
2022/07/05 06:30:26;;;;;;;7.57;3.42;;;13.80;99.90;;;;;;5033269;28;20485;-72
2022/07/05 06:32:52;;;;;;;3.90;2.42;;;13.90;99.90;;;;;;5032468;28;20059;-72
2022/07/05 06:35:18;;;;;;;5.82;2.78;;;13.90;99.90;;;;;;5030195;28;20083;-72
2022/07/05 06:37:45;;;;;;;3.42;2.17;;;13.90;99.90;;;;;;5025495;28;20026;-72
2022/07/05 06:40:12;;;;;;;4.78;2.40;;;14.00;99.90;;;;;;5032549;28;20049;-72
2022/07/05 06:42:38;;;;;;;4.47;2.30;;;14.10;99.90;;;;;;5024103;28;20033;-74
2022/07/05 06:45:05;;;;;;;6.97;2.67;;;14.10;99.90;;;;;;5031303;28;20029;-73
2022/07/05 06:47:32;;;;;;;8.45;3.70;;;14.10;99.90;;;;;;5037838;28;20108;-74
2022/07/05 06:49:58;;;;;;;6.43;2.33;;;14.20;99.90;;;;;;5040235;28;20025;-72
2022/07/05 06:52:24;;;;;;;2.80;2.03;;;14.30;99.90;;;;;;5024734;28;20548;-71
2022/07/05 06:54:50;;;;;;;3.47;1.98;;;14.30;99.90;;;;;;5038944;28;20026;-71
2022/07/05 06:57:21;;;;;;;4.30;2.00;;;14.40;99.90;;;;;;5042285;28;20033;-72
2022/07/05 06:59:47;;;;;;;3.47;1.75;;;14.40;99.90;;;;;;5031844;28;20028;-72
2022/07/05 07:02:13;;;;;;;7.70;2.90;;;14.50;99.90;;;;;;5028128;28;20045;-73
2022/07/05 07:04:39;;;;;;;8.18;2.33;;;14.60;99.90;;;;;;5024443;28;20116;-73
2022/07/05 07:09:17;;;;;;;13.02;2.63;;;14.70;99.90;;;;;;5029537;28;20108;-71
2022/07/05 07:09:50;;;;;;;7.22;2.60;;;14.80;99.90;;;;;;5024691;28;20481;-67
2022/07/05 07:12:16;;;;;;;4.28;1.85;;;14.90;99.90;;;;;;5032933;28;20040;-66
2022/07/05 07:14:41;;;;;;;5.38;2.00;;;15.00;99.90;;;;;;5033167;28;20022;-68
2022/07/05 07:17:07;;;;;;;8.18;2.13;;;15.00;99.90;;;;;;5025174;28;20024;-66
2022/07/05 07:19:33;;;;;;;6.68;2.08;;;15.10;99.90;;;;;;5024983;28;20090;-67
2022/07/05 07:21:58;;;;;;;4.93;1.80;;;15.10;99.90;;;;;;5024180;28;20080;-69
2022/07/05 07:24:24;;;;;;;6.07;1.85;;;15.20;99.90;;;;;;5025690;28;20139;-68
2022/07/05 07:27:06;;;;;;;4.25;1.30;;;15.30;99.90;;;;;;5025549;28;20037;-67
2022/07/05 07:29:33;;;;;;;6.95;1.60;;;15.30;99.90;;;;;;5027168;28;20068;-66
2022/07/05 07:32:00;;;;;;;2.75;1.20;;;15.40;99.90;;;;;;5022171;28;20125;-66
2022/07/05 07:34:27;;;;;;;7.53;1.95;;;15.40;99.90;;;;;;5029058;28;20035;-67
2022/07/05 07:36:53;;;;;;;4.95;1.48;;;15.50;99.90;;;;;;5024914;28;20045;-67
2022/07/05 07:39:20;;;;;;;2.25;1.50;;;15.50;99.90;;;;;;5029905;28;20033;-67
2022/07/05 07:41:46;;;;;;;3.92;1.15;;;15.70;99.90;;;;;;5033904;28;20033;-58
2022/07/05 07:44:11;;;;;;;7.75;2.83;;;15.80;99.90;;;;;;5029370;28;20033;-67
2022/07/05 07:46:39;;;;;;;3.72;1.85;;;15.90;99.90;;;;;;5034076;28;20029;-67
2022/07/05 07:49:05;;;;;;;6.43;1.27;;;16.00;99.90;;;;;;5029650;28;20029;-67
2022/07/05 07:51:31;;;;;;;3.67;1.15;;;16.10;99.90;;;;;;5034740;28;20063;-67
2022/07/05 07:53:57;;;;;;;3.33;1.35;;;16.20;99.90;;;;;;5034903;28;20021;-64
2022/07/05 07:56:23;;;;;;;5.68;1.73;;;16.40;99.90;;;;;;5035631;28;20442;-67
2022/07/05 07:58:49;;;;;;;1.88;0.80;;;16.40;99.90;;;;;;5035267;28;20109;-68
2022/07/05 08:01:15;;;;;;;3.20;0.60;;;16.50;99.90;;;;;;5033704;28;20041;-68
2022/07/05 08:03:42;;;;;;;5.28;1.38;;;16.50;99.90;;;;;;5035068;28;20017;-67
2022/07/05 08:06:12;;;;;;;9.32;1.42;;;16.50;99.90;;;;;;5031104;28;20477;-67
2022/07/05 08:08:38;;;;;;;3.38;0.80;;;16.60;99.90;;;;;;5030440;28;20026;-67
2022/07/05 08:11:05;;;;;;;3.15;0.85;;;16.70;99.90;;;;;;5032386;28;20449;-67
2022/07/05 08:13:31;;;;;;;2.95;0.80;;;16.80;99.90;;;;;;5029953;28;20384;-68
2022/07/05 08:15:57;;;;;;;2.67;0.80;;;16.80;99.90;;;;;;5028673;28;20096;-67
2022/07/05 08:23:52;;;;;;;5.70;1.55;;;17.10;99.90;;;;;;5035114;28;20094;-66
2022/07/05 08:26:18;;;;;;;1.88;0.90;;;17.20;99.90;;;;;;5031562;28;20029;-67
2022/07/05 08:28:44;;;;;;;2.00;0.70;;;17.30;99.90;;;;;;5028385;28;20037;-66
2022/07/05 08:31:09;;;;;;;1.52;0.82;;;17.50;99.90;;;;;;5030369;28;20045;-67
2022/07/05 08:33:35;;;;;;;4.75;0.60;;;17.70;99.90;;;;;;5039150;28;20080;-67
2022/07/05 08:36:01;;;;;;;2.10;0.85;;;17.80;99.90;;;;;;5033190;28;20033;-68
2022/07/05 08:38:27;;;;;;;4.47;1.20;;;17.80;99.90;;;;;;5026680;28;20512;-67
2022/07/05 08:40:55;;;;;;;7.03;1.77;;;18.00;99.90;;;;;;5033001;28;20033;-66
2022/07/05 08:43:23;;;;;;;3.15;0.93;;;18.20;99.90;;;;;;5028180;28;20049;-65
2022/07/05 08:45:50;;;;;;;4.43;1.23;;;18.30;99.90;;;;;;5029467;28;20025;-66
2022/07/05 08:48:20;;;;;;;4.40;0.90;;;18.40;99.90;;;;;;5030214;28;20076;-66
2022/07/05 08:50:48;;;;;;;5.63;1.17;;;18.50;99.90;;;;;;5031886;28;20086;-67
2022/07/05 08:53:21;;;;;;;4.25;1.10;;;18.70;99.90;;;;;;5031530;28;20459;-66
2022/07/05 08:55:47;;;;;;;1.80;0.85;;;18.90;99.90;;;;;;5032802;28;20059;-65
2022/07/05 08:58:13;;;;;;;4.72;1.10;;;19.20;99.90;;;;;;5038126;28;20032;-66
2022/07/05 09:00:41;;;;;;;3.65;1.45;;;19.60;99.90;;;;;;5032809;28;20033;-66
2022/07/05 09:03:06;;;;;;;1.23;0.85;;;19.80;99.90;;;;;;5031932;28;20041;-65
2022/07/05 09:05:42;;;;;;;5.15;1.08;;;19.90;99.90;;;;;;5021952;28;20033;-67
2022/07/05 09:08:12;;;;;;;3.78;1.00;;;19.70;99.90;;;;;;5034989;28;20029;-66
2022/07/05 09:10:39;;;;;;;4.40;0.82;;;19.40;99.90;;;;;;5034180;28;20401;-67
2022/07/05 09:13:05;;;;;;;3.80;0.98;;;19.40;99.90;;;;;;5026180;28;20025;-67
2022/07/05 09:15:30;;;;;;;2.40;0.70;;;19.30;99.90;;;;;;5030569;28;20052;-67
2022/07/05 09:17:56;;;;;;;5.72;0.98;;;19.30;99.90;;;;;;5033497;28;20450;-66
2022/07/05 09:20:22;;;;;;;2.88;0.80;;;19.30;99.90;;;;;;5036362;28;20091;-67
2022/07/05 09:22:54;;;;;;;2.22;0.93;;;19.30;99.90;;;;;;5036658;28;20045;-67
2022/07/05 09:25:30;;;;;;;4.30;1.60;;;19.60;99.60;;;;;;5035803;28;20496;-67
2022/07/05 09:28:02;;;;;;;4.28;1.33;;;20.00;99.70;;;;;;5031799;28;20108;-68
2022/07/05 09:30:30;;;;;;;5.57;1.48;;;20.10;99.80;;;;;;5028894;28;20079;-68
2022/07/05 09:33:06;;;;;;;4.32;1.05;;;20.10;99.90;;;;;;5027557;28;20036;-68
2022/07/05 09:35:33;;;;;;;3.97;0.95;;;19.90;99.90;;;;;;5024551;28;20026;-68
2022/07/05 09:37:59;;;;;;;1.25;0.63;;;19.50;98.60;;;;;;5028464;28;20112;-69
2022/07/05 09:40:25;;;;;;;2.60;0.80;;;19.30;98.60;;;;;;5028777;28;20385;-68
2022/07/05 09:42:51;;;;;;;1.92;0.93;;;19.50;96.90;;;;;;5026245;28;20024;-67
2022/07/05 09:45:23;;;;;;;3.05;0.98;;;19.80;97.30;;;;;;5034957;28;20492;-68
2022/07/05 09:47:49;;;;;;;4.63;1.10;;;19.80;97.60;;;;;;5031093;28;20531;-68
2022/07/05 09:50:32;;;;;;;0.88;0.60;;;19.90;95.90;;;;;;5030208;28;20026;-67
2022/07/05 09:52:57;;;;;;;2.95;1.25;;;19.90;95.70;;;;;;5028072;28;20056;-69
2022/07/05 09:55:23;;;;;;;1.17;0.95;;;20.10;95.90;;;;;;5028759;28;20335;-68
2022/07/05 09:57:50;;;;;;;5.45;1.15;;;20.10;95.40;;;;;;5028468;28;20488;-68
2022/07/05 10:00:21;;;;;;;2.55;1.10;;;20.20;96.50;;;;;;5030818;28;20027;-68
2022/07/05 10:02:51;;;;;;;1.25;0.82;;;20.40;96.10;;;;;;5033266;28;20026;-67
2022/07/05 10:05:26;;;;;;;5.60;2.35;;;20.50;94.80;;;;;;5027607;28;20477;-68
2022/07/05 10:07:54;;;;;;;1.92;1.00;;;20.60;94.60;;;;;;5026930;28;20057;-68
2022/07/05 10:10:24;;;;;;;2.25;1.08;;;20.70;93.80;;;;;;5028946;28;20473;-68
2022/07/05 10:12:52;;;;;;;2.90;1.45;;;20.90;93.80;;;;;;5022575;28;20087;-69
2022/07/05 10:15:23;;;;;;;3.08;1.15;;;21.00;93.90;;;;;;5034292;28;20036;-68
2022/07/05 10:18:00;;;;;;;4.63;1.15;;;20.80;93.10;;;;;;5033715;28;20034;-68
2022/07/05 10:20:42;;;;;;;7.47;1.30;;;20.80;93.50;;;;;;5025816;28;20041;-68
2022/07/05 10:23:09;;;;;;;4.80;1.85;;;20.80;91.80;;;;;;5037973;28;20029;-68
2022/07/05 10:25:37;;;;;;;2.75;2.10;;;21.10;91.80;;;;;;5033033;28;20048;-68
2022/07/05 10:28:04;;;;;;;5.07;2.22;;;21.20;92.00;;;;;;5031546;28;20017;-68
2022/07/05 10:30:29;;;;;;;6.18;1.60;;;21.60;93.10;;;;;;5031978;28;20037;-69
2022/07/05 10:32:56;;;;;;;2.90;2.35;;;22.00;90.80;;;;;;5035808;28;20026;-67
2022/07/05 10:35:22;;;;;;;3.25;1.58;;;22.10;89.20;;;;;;5031728;28;20033;-67
2022/07/05 10:37:49;;;;;;;3.65;1.88;;;22.20;88.50;;;;;;5026753;28;20069;-67
2022/07/05 10:40:16;;;;;;;6.22;1.73;;;22.20;90.00;;;;;;5031865;28;20179;-67
2022/07/05 10:42:49;;;;;;;3.38;1.80;;;21.80;90.00;;;;;;5030698;28;20034;-67
2022/07/05 10:45:25;;;;;;;3.45;2.30;;;21.40;90.20;;;;;;5031373;28;20030;-68
2022/07/05 10:48:09;;;;;;;5.72;1.90;;;21.50;89.80;;;;;;5033011;28;20029;-66
2022/07/05 10:50:55;;;;;;;4.25;2.28;;;22.00;87.80;;;;;;5033039;28;20060;-67
2022/07/05 10:53:48;;;;;;;3.70;2.22;;;22.10;88.00;;;;;;5028801;28;20489;-67
2022/07/05 10:56:14;;;;;;;5.30;2.45;;;22.30;86.70;;;;;;5032378;28;20037;-66
2022/07/05 10:58:44;;;;;;;3.67;2.70;;;22.40;87.90;;;;;;5040016;28;20029;-67
2022/07/05 11:01:19;;;;;;;5.47;1.80;;;22.10;86.30;;;;;;5025137;28;20161;-67
2022/07/05 11:03:48;;;;;;;6.30;2.10;;;22.30;87.00;;;;;;5024556;28;20033;-66
2022/07/05 11:06:43;;;;;;;2.47;1.80;;;22.80;84.00;;;;;;5026188;28;20029;-68
2022/07/05 11:09:09;;;;;;;2.80;1.80;;;23.40;81.60;;;;;;5037016;28;20121;-67
2022/07/05 11:12:00;;;;;;;4.18;2.60;;;23.20;80.10;;;;;;5043058;28;20115;-66
2022/07/05 11:14:26;;;;;;;4.22;2.08;;;23.80;77.20;;;;;;5022608;28;20091;-68
2022/07/05 11:17:29;;;;;;;3.30;2.30;;;23.70;77.70;;;;;;5019500;28;20421;-66
2022/07/05 11:20:10;;;;;;;4.85;2.22;;;23.20;77.00;;;;;;5024391;28;20117;-67
2022/07/05 11:22:38;;;;;;;3.13;1.65;;;23.40;78.30;;;;;;5022689;28;20035;-66
2022/07/05 11:25:05;;;;;;;3.30;2.10;;;24.10;76.00;;;;;;5028335;28;20021;-67
2022/07/05 11:27:33;;;;;;;6.45;3.97;;;24.20;75.00;;;;;;5030749;28;20034;-67
2022/07/05 11:29:59;;;;;;;9.68;4.43;;;23.70;76.80;;;;;;5022070;28;20022;-69
2022/07/05 11:32:30;;;;;;;6.65;4.03;;;23.30;76.80;;;;;;5030453;28;20040;-68
2022/07/05 11:35:12;;;;;;;7.35;3.60;;;23.30;77.00;;;;;;5020117;28;20028;-68
2022/07/05 11:37:56;;;;;;;;;;;23.80;74.50;;;;;;5028706;28;20079;-69
2022/07/05 11:40:21;;;;;;;6.90;4.38;;;24.00;72.80;;;;;;5023624;28;19949;-69
2022/07/05 11:42:48;;;;;;;14.23;8.70;;;23.80;72.50;;;;;;5035131;28;20053;-68
2022/07/05 11:45:14;;;;;;;14.73;10.05;;;23.60;74.40;;;;;;5032551;28;20036;-67
2022/07/05 11:47:41;;;;;;;14.18;10.00;;;23.50;74.30;;;;;;5031466;28;20025;-68
2022/07/05 11:50:07;;;;;;;23.83;13.82;;;23.10;74.80;;;;;;5033111;28;20040;-68
2022/07/05 11:52:35;;;;;;;19.27;13.27;;;23.00;76.00;;;;;;5038730;28;20021;-68
2022/07/05 11:55:03;;;;;;;13.65;9.05;;;23.20;75.60;;;;;;5035027;28;20044;-68
2022/07/05 11:57:29;;;;;;;13.93;8.18;;;23.60;75.00;;;;;;5025487;28;20033;-68
2022/07/05 11:59:55;;;;;;;13.32;9.60;;;23.60;75.90;;;;;;5029637;28;20033;-67
2022/07/05 12:02:21;;;;;;;13.32;10.90;;;23.50;72.80;;;;;;5038750;28;20362;-67
2022/07/05 12:04:48;;;;;;;17.63;11.70;;;23.80;73.70;;;;;;5035552;28;20040;-67
2022/07/05 12:07:34;;;;;;;15.75;10.55;;;24.00;72.20;;;;;;5025604;28;20091;-67
2022/07/05 12:12:47;;;;;;;17.83;13.38;;;24.10;69.90;;;;;;5029834;28;20083;-67
2022/07/05 12:15:18;;;;;;;25.77;19.55;;;23.70;72.00;;;;;;5038161;28;20032;-66
2022/07/05 12:17:45;;;;;;;26.27;19.65;;;23.70;72.50;;;;;;5030634;28;20377;-67
2022/07/05 12:20:14;;;;;;;29.50;19.98;;;24.40;70.50;;;;;;5032210;28;20053;-67
2022/07/05 12:22:41;;;;;;;32.00;21.85;;;25.30;66.30;;;;;;5031372;28;20428;-68
2022/07/05 12:25:09;;;;;;;33.55;23.48;;;25.40;63.60;;;;;;5026457;28;20033;-67
2022/07/05 12:27:37;;;;;;;33.75;23.90;;;26.00;63.10;;;;;;5038304;28;20136;-68
2022/07/05 12:30:04;;;;;;;31.88;23.92;;;26.60;59.60;;;;;;5028520;28;20429;-68
2022/07/05 12:32:30;;;;;;;26.40;20.15;;;26.70;60.10;;;;;;5033370;28;20543;-68
2022/07/05 12:34:56;;;;;;;27.42;18.52;;;25.80;58.90;;;;;;5033542;28;20022;-67
2022/07/05 12:37:24;;;;;;;24.27;15.88;;;25.40;61.60;;;;;;5033051;28;20167;-67
2022/07/05 12:40:01;;;;;;;21.15;13.55;;;24.80;62.10;;;;;;5035129;28;20025;-68
2022/07/05 12:42:32;;;;;;;15.15;10.52;;;24.50;65.00;;;;;;5031106;28;20029;-67
2022/07/05 12:45:10;;;;;;;12.70;7.85;;;24.60;64.20;;;;;;5029032;28;20108;-65
2022/07/05 12:47:47;;;;;;;14.32;8.40;;;23.70;66.20;;;;;;5031219;28;20492;-68
2022/07/05 12:50:13;;;;;;;8.55;3.63;;;24.40;66.70;;;;;;5013030;28;20021;-67
2022/07/05 12:58:46;;;;;;;7.82;4.15;;;26.30;63.50;;;;;;5029775;28;20063;-68
2022/07/05 13:01:39;;;;;;;6.63;4.20;;;26.80;64.80;;;;;;5031481;28;20041;-68
2022/07/05 13:04:18;;;;;;;5.32;3.25;;;26.50;58.30;;;;;;5026535;28;20044;-66